sensor_id;sensor_type;location;lat;lon;timestamp;temperature;humidity
19258;DHT22;9763;48.780;9.212;2022-07-17T00:00:05;23.00;35.70
19258;DHT22;9763;48.780;9.212;2022-07-17T00:03:30;23.00;35.80
19258;DHT22;9763;48.780;9.212;2022-07-17T00:06:54;22.90;35.80
19258;DHT22;9763;48.780;9.212;2022-07-17T00:10:18;22.80;35.90
19258;DHT22;9763;48.780;9.212;2022-07-17T00:13:43;22.80;35.90
19258;DHT22;9763;48.780;9.212;2022-07-17T00:17:06;22.70;36.20
19258;DHT22;9763;48.780;9.212;2022-07-17T00:20:30;22.60;36.30
19258;DHT22;9763;48.780;9.212;2022-07-17T00:23:54;22.60;36.40
19258;DHT22;9763;48.780;9.212;2022-07-17T00:27:18;22.50;36.40
19258;DHT22;9763;48.780;9.212;2022-07-17T00:30:43;22.50;36.60
19258;DHT22;9763;48.780;9.212;2022-07-17T00:34:07;22.40;36.80
19258;DHT22;9763;48.780;9.212;2022-07-17T00:37:31;22.40;36.70
19258;DHT22;9763;48.780;9.212;2022-07-17T00:41:00;22.30;36.90
19258;DHT22;9763;48.780;9.212;2022-07-17T00:44:26;22.20;36.80
19258;DHT22;9763;48.780;9.212;2022-07-17T00:47:54;22.20;37.10
19258;DHT22;9763;48.780;9.212;2022-07-17T00:51:19;22.20;37.20
19258;DHT22;9763;48.780;9.212;2022-07-17T00:54:45;22.20;37.20
19258;DHT22;9763;48.780;9.212;2022-07-17T00:58:19;22.10;37.30
19258;DHT22;9763;48.780;9.212;2022-07-17T01:01:44;22.10;37.30
19258;DHT22;9763;48.780;9.212;2022-07-17T01:05:11;22.10;37.20
19258;DHT22;9763;48.780;9.212;2022-07-17T01:08:41;22.00;37.30
19258;DHT22;9763;48.780;9.212;2022-07-17T01:12:07;22.00;37.30
19258;DHT22;9763;48.780;9.212;2022-07-17T01:15:33;22.00;37.60
19258;DHT22;9763;48.780;9.212;2022-07-17T01:18:59;21.90;37.60
19258;DHT22;9763;48.780;9.212;2022-07-17T01:22:24;21.90;38.30
19258;DHT22;9763;48.780;9.212;2022-07-17T01:25:48;21.90;37.80
19258;DHT22;9763;48.780;9.212;2022-07-17T01:29:13;21.80;37.80
19258;DHT22;9763;48.780;9.212;2022-07-17T01:32:39;21.80;38.00
19258;DHT22;9763;48.780;9.212;2022-07-17T01:36:04;21.70;38.20
19258;DHT22;9763;48.780;9.212;2022-07-17T01:39:29;21.60;38.10
19258;DHT22;9763;48.780;9.212;2022-07-17T01:43:10;21.50;38.40
19258;DHT22;9763;48.780;9.212;2022-07-17T01:46:34;21.50;38.40
19258;DHT22;9763;48.780;9.212;2022-07-17T01:49:59;21.50;38.50
19258;DHT22;9763;48.780;9.212;2022-07-17T01:53:23;21.40;38.70
19258;DHT22;9763;48.780;9.212;2022-07-17T01:56:48;21.30;38.70
19258;DHT22;9763;48.780;9.212;2022-07-17T02:04:16;21.20;39.20
19258;DHT22;9763;48.780;9.212;2022-07-17T02:07:40;21.20;38.80
19258;DHT22;9763;48.780;9.212;2022-07-17T02:11:06;21.10;38.90
19258;DHT22;9763;48.780;9.212;2022-07-17T02:14:31;21.10;39.00
19258;DHT22;9763;48.780;9.212;2022-07-17T02:17:55;21.10;39.20
19258;DHT22;9763;48.780;9.212;2022-07-17T02:21:19;21.00;39.20
19258;DHT22;9763;48.780;9.212;2022-07-17T02:24:43;21.00;40.00
19258;DHT22;9763;48.780;9.212;2022-07-17T02:28:06;21.00;40.00
19258;DHT22;9763;48.780;9.212;2022-07-17T02:31:31;21.00;39.60
19258;DHT22;9763;48.780;9.212;2022-07-17T02:34:55;20.90;39.80
19258;DHT22;9763;48.780;9.212;2022-07-17T02:38:19;20.90;39.90
19258;DHT22;9763;48.780;9.212;2022-07-17T02:41:42;20.80;39.90
19258;DHT22;9763;48.780;9.212;2022-07-17T02:45:07;20.80;40.00
19258;DHT22;9763;48.780;9.212;2022-07-17T02:48:33;20.70;40.00
19258;DHT22;9763;48.780;9.212;2022-07-17T02:51:57;20.70;40.20
19258;DHT22;9763;48.780;9.212;2022-07-17T02:55:20;20.70;40.30
19258;DHT22;9763;48.780;9.212;2022-07-17T02:58:44;20.60;40.20
19258;DHT22;9763;48.780;9.212;2022-07-17T03:02:08;20.60;40.30
19258;DHT22;9763;48.780;9.212;2022-07-17T03:05:33;20.60;41.10
19258;DHT22;9763;48.780;9.212;2022-07-17T03:08:57;20.50;40.70
19258;DHT22;9763;48.780;9.212;2022-07-17T03:12:20;20.50;40.70
19258;DHT22;9763;48.780;9.212;2022-07-17T03:15:44;20.50;40.70
19258;DHT22;9763;48.780;9.212;2022-07-17T03:19:08;20.50;40.90
19258;DHT22;9763;48.780;9.212;2022-07-17T03:22:33;20.40;41.00
19258;DHT22;9763;48.780;9.212;2022-07-17T03:25:57;20.40;41.10
19258;DHT22;9763;48.780;9.212;2022-07-17T03:29:21;20.30;41.10
19258;DHT22;9763;48.780;9.212;2022-07-17T03:32:44;20.30;41.20
19258;DHT22;9763;48.780;9.212;2022-07-17T03:36:08;20.30;41.30
19258;DHT22;9763;48.780;9.212;2022-07-17T03:39:33;20.20;41.30
19258;DHT22;9763;48.780;9.212;2022-07-17T03:42:57;20.20;41.60
19258;DHT22;9763;48.780;9.212;2022-07-17T03:46:20;20.20;41.50
19258;DHT22;9763;48.780;9.212;2022-07-17T03:49:44;20.10;41.70
19258;DHT22;9763;48.780;9.212;2022-07-17T03:53:08;20.10;41.70
19258;DHT22;9763;48.780;9.212;2022-07-17T03:56:33;20.10;41.80
19258;DHT22;9763;48.780;9.212;2022-07-17T03:59:57;20.10;42.10
19258;DHT22;9763;48.780;9.212;2022-07-17T04:03:20;20.10;42.30
19258;DHT22;9763;48.780;9.212;2022-07-17T04:06:44;20.20;42.70
19258;DHT22;9763;48.780;9.212;2022-07-17T04:10:10;20.30;43.20
19258;DHT22;9763;48.780;9.212;2022-07-17T04:13:36;20.70;43.70
19258;DHT22;9763;48.780;9.212;2022-07-17T04:17:00;20.60;44.20
19258;DHT22;9763;48.780;9.212;2022-07-17T04:20:24;20.70;43.50
19258;DHT22;9763;48.780;9.212;2022-07-17T04:23:48;20.90;43.60
19258;DHT22;9763;48.780;9.212;2022-07-17T04:27:12;21.20;43.90
19258;DHT22;9763;48.780;9.212;2022-07-17T04:30:37;21.40;44.00
19258;DHT22;9763;48.780;9.212;2022-07-17T04:34:01;21.80;44.20
19258;DHT22;9763;48.780;9.212;2022-07-17T04:37:24;22.20;44.30
19258;DHT22;9763;48.780;9.212;2022-07-17T04:40:48;22.60;44.40
19258;DHT22;9763;48.780;9.212;2022-07-17T04:44:12;23.00;44.30
19258;DHT22;9763;48.780;9.212;2022-07-17T04:47:37;23.40;44.10
19258;DHT22;9763;48.780;9.212;2022-07-17T04:51:00;23.80;44.60
19258;DHT22;9763;48.780;9.212;2022-07-17T04:54:24;24.20;44.60
19258;DHT22;9763;48.780;9.212;2022-07-17T04:57:48;24.50;44.00
19258;DHT22;9763;48.780;9.212;2022-07-17T05:01:11;24.90;44.00
19258;DHT22;9763;48.780;9.212;2022-07-17T05:04:37;25.40;43.90
19258;DHT22;9763;48.780;9.212;2022-07-17T05:08:00;25.90;43.70
19258;DHT22;9763;48.780;9.212;2022-07-17T05:11:24;26.30;43.40
19258;DHT22;9763;48.780;9.212;2022-07-17T05:14:48;26.70;43.30
19258;DHT22;9763;48.780;9.212;2022-07-17T05:18:12;27.20;43.00
19258;DHT22;9763;48.780;9.212;2022-07-17T05:21:37;27.70;42.80
19258;DHT22;9763;48.780;9.212;2022-07-17T05:25:00;28.10;42.50
19258;DHT22;9763;48.780;9.212;2022-07-17T05:28:24;28.60;42.20
19258;DHT22;9763;48.780;9.212;2022-07-17T05:31:48;29.00;42.30
19258;DHT22;9763;48.780;9.212;2022-07-17T05:35:12;29.40;41.30
19258;DHT22;9763;48.780;9.212;2022-07-17T05:38:37;29.80;41.00
19258;DHT22;9763;48.780;9.212;2022-07-17T05:42:01;30.20;40.60
19258;DHT22;9763;48.780;9.212;2022-07-17T05:45:25;30.50;40.00
19258;DHT22;9763;48.780;9.212;2022-07-17T05:48:49;30.90;39.70
19258;DHT22;9763;48.780;9.212;2022-07-17T05:52:12;31.20;39.40
19258;DHT22;9763;48.780;9.212;2022-07-17T05:55:38;31.40;39.10
19258;DHT22;9763;48.780;9.212;2022-07-17T05:59:01;31.70;38.70
19258;DHT22;9763;48.780;9.212;2022-07-17T06:02:25;32.00;38.40
19258;DHT22;9763;48.780;9.212;2022-07-17T06:05:48;32.30;38.10
19258;DHT22;9763;48.780;9.212;2022-07-17T06:09:12;32.60;37.90
19258;DHT22;9763;48.780;9.212;2022-07-17T06:12:38;32.90;37.50
19258;DHT22;9763;48.780;9.212;2022-07-17T06:16:02;33.20;37.00
19258;DHT22;9763;48.780;9.212;2022-07-17T06:19:26;33.50;36.70
19258;DHT22;9763;48.780;9.212;2022-07-17T06:22:50;33.80;36.40
19258;DHT22;9763;48.780;9.212;2022-07-17T06:26:13;34.20;36.20
19258;DHT22;9763;48.780;9.212;2022-07-17T06:29:38;34.50;35.30
19258;DHT22;9763;48.780;9.212;2022-07-17T06:33:11;34.80;35.50
19258;DHT22;9763;48.780;9.212;2022-07-17T06:36:35;35.10;34.70
19258;DHT22;9763;48.780;9.212;2022-07-17T06:39:58;35.40;34.40
19258;DHT22;9763;48.780;9.212;2022-07-17T06:43:23;35.70;34.10
19258;DHT22;9763;48.780;9.212;2022-07-17T06:46:48;36.00;33.40
19258;DHT22;9763;48.780;9.212;2022-07-17T06:50:12;36.30;33.00
19258;DHT22;9763;48.780;9.212;2022-07-17T06:53:35;36.60;32.60
19258;DHT22;9763;48.780;9.212;2022-07-17T06:57:00;36.80;32.20
19258;DHT22;9763;48.780;9.212;2022-07-17T07:00:24;37.00;31.60
19258;DHT22;9763;48.780;9.212;2022-07-17T07:03:49;37.20;31.20
19258;DHT22;9763;48.780;9.212;2022-07-17T07:07:13;37.40;30.50
19258;DHT22;9763;48.780;9.212;2022-07-17T07:10:37;37.50;30.30
19258;DHT22;9763;48.780;9.212;2022-07-17T07:14:01;37.70;30.10
19258;DHT22;9763;48.780;9.212;2022-07-17T07:17:25;37.90;29.80
19258;DHT22;9763;48.780;9.212;2022-07-17T07:20:50;38.00;29.50
19258;DHT22;9763;48.780;9.212;2022-07-17T07:24:14;38.20;29.20
19258;DHT22;9763;48.780;9.212;2022-07-17T07:27:37;38.30;29.10
19258;DHT22;9763;48.780;9.212;2022-07-17T07:31:03;38.50;28.90
19258;DHT22;9763;48.780;9.212;2022-07-17T07:34:27;38.60;28.70
19258;DHT22;9763;48.780;9.212;2022-07-17T07:37:52;38.70;28.10
19258;DHT22;9763;48.780;9.212;2022-07-17T07:41:17;38.70;27.90
19258;DHT22;9763;48.780;9.212;2022-07-17T07:44:41;38.70;28.60
19258;DHT22;9763;48.780;9.212;2022-07-17T07:48:05;38.80;28.10
19258;DHT22;9763;48.780;9.212;2022-07-17T07:51:29;38.90;27.80
19258;DHT22;9763;48.780;9.212;2022-07-17T07:55:14;39.10;27.60
19258;DHT22;9763;48.780;9.212;2022-07-17T07:58:42;39.20;27.30
19258;DHT22;9763;48.780;9.212;2022-07-17T08:02:06;39.30;27.30
19258;DHT22;9763;48.780;9.212;2022-07-17T08:05:30;39.40;26.90
19258;DHT22;9763;48.780;9.212;2022-07-17T08:08:55;39.40;26.90
19258;DHT22;9763;48.780;9.212;2022-07-17T08:12:21;39.50;26.70
19258;DHT22;9763;48.780;9.212;2022-07-17T08:16:05;39.70;26.80
19258;DHT22;9763;48.780;9.212;2022-07-17T08:19:29;39.80;26.60
19258;DHT22;9763;48.780;9.212;2022-07-17T08:22:53;40.00;26.30
19258;DHT22;9763;48.780;9.212;2022-07-17T08:26:32;40.20;26.30
19258;DHT22;9763;48.780;9.212;2022-07-17T08:29:58;40.30;26.20
19258;DHT22;9763;48.780;9.212;2022-07-17T08:33:23;40.50;25.90
19258;DHT22;9763;48.780;9.212;2022-07-17T08:36:47;40.60;25.70
19258;DHT22;9763;48.780;9.212;2022-07-17T08:40:18;40.80;26.20
19258;DHT22;9763;48.780;9.212;2022-07-17T08:43:44;40.90;25.40
19258;DHT22;9763;48.780;9.212;2022-07-17T08:47:13;41.10;25.60
19258;DHT22;9763;48.780;9.212;2022-07-17T08:50:38;41.30;25.30
19258;DHT22;9763;48.780;9.212;2022-07-17T08:54:02;41.50;25.30
19258;DHT22;9763;48.780;9.212;2022-07-17T08:57:26;41.70;24.90
19258;DHT22;9763;48.780;9.212;2022-07-17T09:00:50;41.70;24.70
19258;DHT22;9763;48.780;9.212;2022-07-17T09:04:17;41.70;24.70
19258;DHT22;9763;48.780;9.212;2022-07-17T09:07:45;41.90;24.50
19258;DHT22;9763;48.780;9.212;2022-07-17T09:11:09;41.90;24.10
19258;DHT22;9763;48.780;9.212;2022-07-17T09:14:38;41.90;24.10
19258;DHT22;9763;48.780;9.212;2022-07-17T09:18:03;41.90;23.90
19258;DHT22;9763;48.780;9.212;2022-07-17T09:21:29;41.90;24.10
19258;DHT22;9763;48.780;9.212;2022-07-17T09:24:56;41.90;24.00
19258;DHT22;9763;48.780;9.212;2022-07-17T09:28:21;41.90;23.70
19258;DHT22;9763;48.780;9.212;2022-07-17T09:31:51;41.90;23.50
19258;DHT22;9763;48.780;9.212;2022-07-17T09:35:15;41.80;23.30
19258;DHT22;9763;48.780;9.212;2022-07-17T09:38:42;41.70;23.40
19258;DHT22;9763;48.780;9.212;2022-07-17T09:42:07;41.60;23.10
19258;DHT22;9763;48.780;9.212;2022-07-17T09:45:31;41.60;23.00
19258;DHT22;9763;48.780;9.212;2022-07-17T09:48:58;41.50;22.80
19258;DHT22;9763;48.780;9.212;2022-07-17T09:52:24;41.30;22.70
19258;DHT22;9763;48.780;9.212;2022-07-17T09:55:56;41.30;22.60
19258;DHT22;9763;48.780;9.212;2022-07-17T09:59:26;41.30;22.60
19258;DHT22;9763;48.780;9.212;2022-07-17T10:02:58;41.40;22.70
19258;DHT22;9763;48.780;9.212;2022-07-17T10:06:24;41.50;22.60
19258;DHT22;9763;48.780;9.212;2022-07-17T10:09:49;41.50;22.50
19258;DHT22;9763;48.780;9.212;2022-07-17T10:13:14;40.70;22.10
19258;DHT22;9763;48.780;9.212;2022-07-17T10:16:39;41.70;22.70
19258;DHT22;9763;48.780;9.212;2022-07-17T10:20:05;41.70;22.30
19258;DHT22;9763;48.780;9.212;2022-07-17T10:23:29;41.70;22.20
19258;DHT22;9763;48.780;9.212;2022-07-17T10:26:53;41.70;22.20
19258;DHT22;9763;48.780;9.212;2022-07-17T10:30:25;41.70;22.30
19258;DHT22;9763;48.780;9.212;2022-07-17T10:33:57;41.90;22.00
19258;DHT22;9763;48.780;9.212;2022-07-17T10:37:23;41.90;21.20
19258;DHT22;9763;48.780;9.212;2022-07-17T10:40:59;41.60;21.60
19258;DHT22;9763;48.780;9.212;2022-07-17T10:44:24;41.30;21.70
19258;DHT22;9763;48.780;9.212;2022-07-17T10:47:55;41.20;22.00
19258;DHT22;9763;48.780;9.212;2022-07-17T10:51:23;41.20;21.80
19258;DHT22;9763;48.780;9.212;2022-07-17T10:54:48;41.30;22.30
19258;DHT22;9763;48.780;9.212;2022-07-17T10:58:23;41.30;21.60
19258;DHT22;9763;48.780;9.212;2022-07-17T11:01:55;41.40;21.50
19258;DHT22;9763;48.780;9.212;2022-07-17T11:05:21;41.50;21.60
19258;DHT22;9763;48.780;9.212;2022-07-17T11:08:48;41.60;21.60
19258;DHT22;9763;48.780;9.212;2022-07-17T11:12:13;41.60;21.60
19258;DHT22;9763;48.780;9.212;2022-07-17T11:15:41;41.60;21.40
19258;DHT22;9763;48.780;9.212;2022-07-17T11:19:06;41.60;21.40
19258;DHT22;9763;48.780;9.212;2022-07-17T11:22:31;41.60;21.30
19258;DHT22;9763;48.780;9.212;2022-07-17T11:25:58;41.40;21.40
19258;DHT22;9763;48.780;9.212;2022-07-17T11:29:23;41.40;21.40
19258;DHT22;9763;48.780;9.212;2022-07-17T11:32:47;41.40;21.20
19258;DHT22;9763;48.780;9.212;2022-07-17T11:36:11;41.40;21.10
19258;DHT22;9763;48.780;9.212;2022-07-17T11:39:41;41.40;20.80
19258;DHT22;9763;48.780;9.212;2022-07-17T11:43:08;41.30;20.70
19258;DHT22;9763;48.780;9.212;2022-07-17T11:46:33;41.20;21.00
19258;DHT22;9763;48.780;9.212;2022-07-17T11:50:05;41.20;20.90
19258;DHT22;9763;48.780;9.212;2022-07-17T11:53:32;41.10;21.00
19258;DHT22;9763;48.780;9.212;2022-07-17T11:56:58;41.00;20.90
19258;DHT22;9763;48.780;9.212;2022-07-17T12:00:24;41.00;21.00
19258;DHT22;9763;48.780;9.212;2022-07-17T12:03:56;40.90;20.90
19258;DHT22;9763;48.780;9.212;2022-07-17T12:07:21;40.80;20.80
19258;DHT22;9763;48.780;9.212;2022-07-17T12:10:48;40.80;21.00
19258;DHT22;9763;48.780;9.212;2022-07-17T12:14:30;40.80;21.00
19258;DHT22;9763;48.780;9.212;2022-07-17T12:17:56;40.80;20.90
19258;DHT22;9763;48.780;9.212;2022-07-17T12:21:21;40.80;21.00
19258;DHT22;9763;48.780;9.212;2022-07-17T12:24:45;40.80;20.80
19258;DHT22;9763;48.780;9.212;2022-07-17T12:28:09;40.70;20.80
19258;DHT22;9763;48.780;9.212;2022-07-17T12:31:34;40.50;20.80
19258;DHT22;9763;48.780;9.212;2022-07-17T12:34:59;40.50;20.80
19258;DHT22;9763;48.780;9.212;2022-07-17T12:38:23;40.40;20.80
19258;DHT22;9763;48.780;9.212;2022-07-17T12:41:46;40.20;20.80
19258;DHT22;9763;48.780;9.212;2022-07-17T12:45:10;40.00;20.90
19258;DHT22;9763;48.780;9.212;2022-07-17T12:48:35;39.90;21.10
19258;DHT22;9763;48.780;9.212;2022-07-17T12:52:01;39.80;21.10
19258;DHT22;9763;48.780;9.212;2022-07-17T12:55:24;39.80;21.00
19258;DHT22;9763;48.780;9.212;2022-07-17T12:58:48;39.70;20.80
19258;DHT22;9763;48.780;9.212;2022-07-17T13:02:12;39.50;21.20
19258;DHT22;9763;48.780;9.212;2022-07-17T13:05:37;39.20;20.60
19258;DHT22;9763;48.780;9.212;2022-07-17T13:09:01;39.10;20.70
19258;DHT22;9763;48.780;9.212;2022-07-17T13:12:25;38.90;20.70
19258;DHT22;9763;48.780;9.212;2022-07-17T13:15:48;38.90;20.70
19258;DHT22;9763;48.780;9.212;2022-07-17T13:19:12;38.80;20.60
19258;DHT22;9763;48.780;9.212;2022-07-17T13:22:38;38.80;20.50
19258;DHT22;9763;48.780;9.212;2022-07-17T13:26:03;38.70;20.10
19258;DHT22;9763;48.780;9.212;2022-07-17T13:29:27;38.60;20.20
19258;DHT22;9763;48.780;9.212;2022-07-17T13:32:51;38.40;20.30
19258;DHT22;9763;48.780;9.212;2022-07-17T13:36:15;38.30;20.30
19258;DHT22;9763;48.780;9.212;2022-07-17T13:39:40;38.20;20.40
19258;DHT22;9763;48.780;9.212;2022-07-17T13:43:05;38.20;20.60
19258;DHT22;9763;48.780;9.212;2022-07-17T13:46:28;38.20;20.10
19258;DHT22;9763;48.780;9.212;2022-07-17T13:49:53;38.10;20.20
19258;DHT22;9763;48.780;9.212;2022-07-17T13:53:17;38.00;20.10
19258;DHT22;9763;48.780;9.212;2022-07-17T13:56:42;38.00;20.20
19258;DHT22;9763;48.780;9.212;2022-07-17T14:00:07;37.90;19.90
19258;DHT22;9763;48.780;9.212;2022-07-17T14:03:33;37.70;19.80
19258;DHT22;9763;48.780;9.212;2022-07-17T14:06:56;37.50;19.70
19258;DHT22;9763;48.780;9.212;2022-07-17T14:10:21;37.30;19.70
19258;DHT22;9763;48.780;9.212;2022-07-17T14:13:46;37.00;19.50
19258;DHT22;9763;48.780;9.212;2022-07-17T14:17:12;36.80;20.10
19258;DHT22;9763;48.780;9.212;2022-07-17T14:20:36;36.50;19.60
19258;DHT22;9763;48.780;9.212;2022-07-17T14:24:00;36.20;19.70
19258;DHT22;9763;48.780;9.212;2022-07-17T14:27:24;35.90;19.70
19258;DHT22;9763;48.780;9.212;2022-07-17T14:30:50;35.70;19.80
19258;DHT22;9763;48.780;9.212;2022-07-17T14:34:14;35.50;20.00
19258;DHT22;9763;48.780;9.212;2022-07-17T14:37:38;35.40;20.00
19258;DHT22;9763;48.780;9.212;2022-07-17T14:41:05;35.20;20.00
19258;DHT22;9763;48.780;9.212;2022-07-17T14:44:29;35.10;20.20
19258;DHT22;9763;48.780;9.212;2022-07-17T14:47:55;35.00;20.20
19258;DHT22;9763;48.780;9.212;2022-07-17T14:51:19;34.90;20.30
19258;DHT22;9763;48.780;9.212;2022-07-17T14:54:43;34.80;20.30
19258;DHT22;9763;48.780;9.212;2022-07-17T14:58:07;34.70;20.30
19258;DHT22;9763;48.780;9.212;2022-07-17T15:01:30;34.60;20.40
19258;DHT22;9763;48.780;9.212;2022-07-17T15:04:56;34.60;20.40
19258;DHT22;9763;48.780;9.212;2022-07-17T15:08:19;34.50;20.90
19258;DHT22;9763;48.780;9.212;2022-07-17T15:11:43;34.40;20.40
19258;DHT22;9763;48.780;9.212;2022-07-17T15:15:08;34.20;20.50
19258;DHT22;9763;48.780;9.212;2022-07-17T15:18:32;34.10;20.50
19258;DHT22;9763;48.780;9.212;2022-07-17T15:21:57;34.00;20.60
19258;DHT22;9763;48.780;9.212;2022-07-17T15:25:21;33.90;20.70
19258;DHT22;9763;48.780;9.212;2022-07-17T15:28:45;33.70;21.00
19258;DHT22;9763;48.780;9.212;2022-07-17T15:32:09;33.70;21.10
19258;DHT22;9763;48.780;9.212;2022-07-17T15:35:34;33.60;21.20
19258;DHT22;9763;48.780;9.212;2022-07-17T15:39:00;33.60;21.30
19258;DHT22;9763;48.780;9.212;2022-07-17T15:42:24;33.50;21.20
19258;DHT22;9763;48.780;9.212;2022-07-17T15:45:48;33.50;21.30
19258;DHT22;9763;48.780;9.212;2022-07-17T15:49:12;33.40;21.30
19258;DHT22;9763;48.780;9.212;2022-07-17T15:52:36;33.40;21.40
19258;DHT22;9763;48.780;9.212;2022-07-17T15:56:01;33.40;21.50
19258;DHT22;9763;48.780;9.212;2022-07-17T15:59:24;33.40;21.70
19258;DHT22;9763;48.780;9.212;2022-07-17T16:02:49;33.30;21.80
19258;DHT22;9763;48.780;9.212;2022-07-17T16:06:13;33.20;21.90
19258;DHT22;9763;48.780;9.212;2022-07-17T16:09:36;33.20;21.90
19258;DHT22;9763;48.780;9.212;2022-07-17T16:13:04;33.20;21.90
19258;DHT22;9763;48.780;9.212;2022-07-17T16:16:27;33.20;22.00
19258;DHT22;9763;48.780;9.212;2022-07-17T16:19:52;33.20;22.10
19258;DHT22;9763;48.780;9.212;2022-07-17T16:23:16;33.20;22.20
19258;DHT22;9763;48.780;9.212;2022-07-17T16:26:40;33.20;22.30
19258;DHT22;9763;48.780;9.212;2022-07-17T16:30:07;33.20;22.80
19258;DHT22;9763;48.780;9.212;2022-07-17T16:33:32;33.20;22.50
19258;DHT22;9763;48.780;9.212;2022-07-17T16:37:02;33.20;22.50
19258;DHT22;9763;48.780;9.212;2022-07-17T16:40:26;33.20;22.40
19258;DHT22;9763;48.780;9.212;2022-07-17T16:43:51;33.20;22.30
19258;DHT22;9763;48.780;9.212;2022-07-17T16:47:16;33.20;22.60
19258;DHT22;9763;48.780;9.212;2022-07-17T16:50:41;33.10;22.50
19258;DHT22;9763;48.780;9.212;2022-07-17T16:54:06;33.10;22.60
19258;DHT22;9763;48.780;9.212;2022-07-17T16:57:29;33.10;22.70
19258;DHT22;9763;48.780;9.212;2022-07-17T17:00:54;33.10;22.60
19258;DHT22;9763;48.780;9.212;2022-07-17T17:04:20;33.10;22.80
19258;DHT22;9763;48.780;9.212;2022-07-17T17:07:44;33.10;22.80
19258;DHT22;9763;48.780;9.212;2022-07-17T17:11:07;33.10;22.70
19258;DHT22;9763;48.780;9.212;2022-07-17T17:14:31;33.00;22.70
19258;DHT22;9763;48.780;9.212;2022-07-17T17:17:56;33.00;22.80
19258;DHT22;9763;48.780;9.212;2022-07-17T17:21:22;32.90;22.70
19258;DHT22;9763;48.780;9.212;2022-07-17T17:24:45;32.80;22.80
19258;DHT22;9763;48.780;9.212;2022-07-17T17:28:09;32.70;22.70
19258;DHT22;9763;48.780;9.212;2022-07-17T17:31:33;32.70;22.90
19258;DHT22;9763;48.780;9.212;2022-07-17T17:34:57;32.60;22.80
19258;DHT22;9763;48.780;9.212;2022-07-17T17:38:23;32.60;22.80
19258;DHT22;9763;48.780;9.212;2022-07-17T17:41:47;32.50;22.90
19258;DHT22;9763;48.780;9.212;2022-07-17T17:48:34;32.40;22.60
19258;DHT22;9763;48.780;9.212;2022-07-17T17:51:58;32.40;23.00
19258;DHT22;9763;48.780;9.212;2022-07-17T17:55:24;32.30;23.00
19258;DHT22;9763;48.780;9.212;2022-07-17T17:58:48;32.30;23.10
19258;DHT22;9763;48.780;9.212;2022-07-17T18:02:11;32.20;23.00
19258;DHT22;9763;48.780;9.212;2022-07-17T18:05:36;32.20;23.00
19258;DHT22;9763;48.780;9.212;2022-07-17T18:09:03;32.10;23.10
19258;DHT22;9763;48.780;9.212;2022-07-17T18:12:29;32.10;23.10
19258;DHT22;9763;48.780;9.212;2022-07-17T18:15:54;32.00;23.10
19258;DHT22;9763;48.780;9.212;2022-07-17T18:19:17;31.90;23.30
19258;DHT22;9763;48.780;9.212;2022-07-17T18:22:42;31.80;23.30
19258;DHT22;9763;48.780;9.212;2022-07-17T18:26:05;31.80;23.30
19258;DHT22;9763;48.780;9.212;2022-07-17T18:29:30;31.70;23.80
19258;DHT22;9763;48.780;9.212;2022-07-17T18:33:01;30.00;22.50
19258;DHT22;9763;48.780;9.212;2022-07-17T18:36:25;31.60;23.40
19258;DHT22;9763;48.780;9.212;2022-07-17T18:39:49;31.60;23.40
19258;DHT22;9763;48.780;9.212;2022-07-17T18:43:13;31.50;23.50
19258;DHT22;9763;48.780;9.212;2022-07-17T18:46:38;31.40;23.40
19258;DHT22;9763;48.780;9.212;2022-07-17T18:50:02;31.30;23.50
19258;DHT22;9763;48.780;9.212;2022-07-17T18:53:28;31.20;23.50
19258;DHT22;9763;48.780;9.212;2022-07-17T18:56:55;31.20;23.60
19258;DHT22;9763;48.780;9.212;2022-07-17T19:00:19;31.10;23.70
19258;DHT22;9763;48.780;9.212;2022-07-17T19:03:44;31.00;23.70
19258;DHT22;9763;48.780;9.212;2022-07-17T19:07:08;30.80;23.90
19258;DHT22;9763;48.780;9.212;2022-07-17T19:10:32;33.80;25.30
19258;DHT22;9763;48.780;9.212;2022-07-17T19:13:56;30.60;23.90
19258;DHT22;9763;48.780;9.212;2022-07-17T19:17:20;30.50;24.00
19258;DHT22;9763;48.780;9.212;2022-07-17T19:20:45;30.40;24.10
19258;DHT22;9763;48.780;9.212;2022-07-17T19:24:09;30.30;24.20
19258;DHT22;9763;48.780;9.212;2022-07-17T19:27:33;30.20;24.70
19258;DHT22;9763;48.780;9.212;2022-07-17T19:30:57;30.10;24.30
19258;DHT22;9763;48.780;9.212;2022-07-17T19:34:21;29.90;24.40
19258;DHT22;9763;48.780;9.212;2022-07-17T19:37:46;29.80;24.10
19258;DHT22;9763;48.780;9.212;2022-07-17T19:41:11;29.70;25.10
19258;DHT22;9763;48.780;9.212;2022-07-17T19:44:35;29.60;24.80
19258;DHT22;9763;48.780;9.212;2022-07-17T19:47:59;29.40;24.90
19258;DHT22;9763;48.780;9.212;2022-07-17T19:51:23;29.30;25.10
19258;DHT22;9763;48.780;9.212;2022-07-17T19:54:49;29.20;25.20
19258;DHT22;9763;48.780;9.212;2022-07-17T19:58:12;29.00;25.20
19258;DHT22;9763;48.780;9.212;2022-07-17T20:01:38;28.90;25.20
19258;DHT22;9763;48.780;9.212;2022-07-17T20:05:02;28.80;25.30
19258;DHT22;9763;48.780;9.212;2022-07-17T20:08:27;28.60;25.40
19258;DHT22;9763;48.780;9.212;2022-07-17T20:11:53;28.50;25.40
19258;DHT22;9763;48.780;9.212;2022-07-17T20:15:17;30.60;26.30
19258;DHT22;9763;48.780;9.212;2022-07-17T20:18:41;28.30;25.70
19258;DHT22;9763;48.780;9.212;2022-07-17T20:22:05;28.10;25.60
19258;DHT22;9763;48.780;9.212;2022-07-17T20:25:30;28.00;25.80
19258;DHT22;9763;48.780;9.212;2022-07-17T20:28:56;28.00;26.00
19258;DHT22;9763;48.780;9.212;2022-07-17T20:35:44;27.80;25.70
19258;DHT22;9763;48.780;9.212;2022-07-17T20:45:58;27.50;25.80
19258;DHT22;9763;48.780;9.212;2022-07-17T20:49:22;27.50;26.40
19258;DHT22;9763;48.780;9.212;2022-07-17T20:52:46;27.40;26.30
19258;DHT22;9763;48.780;9.212;2022-07-17T20:56:09;27.30;26.10
19258;DHT22;9763;48.780;9.212;2022-07-17T20:59:33;27.30;27.00
19258;DHT22;9763;48.780;9.212;2022-07-17T21:02:58;27.20;26.60
19258;DHT22;9763;48.780;9.212;2022-07-17T21:06:22;27.10;26.70
19258;DHT22;9763;48.780;9.212;2022-07-17T21:09:46;27.10;26.70
19258;DHT22;9763;48.780;9.212;2022-07-17T21:13:10;27.10;26.70
19258;DHT22;9763;48.780;9.212;2022-07-17T21:16:33;27.00;26.60
19258;DHT22;9763;48.780;9.212;2022-07-17T21:19:59;27.00;26.70
19258;DHT22;9763;48.780;9.212;2022-07-17T21:23:22;26.90;26.80
19258;DHT22;9763;48.780;9.212;2022-07-17T21:26:46;26.90;26.80
19258;DHT22;9763;48.780;9.212;2022-07-17T21:30:10;26.90;26.80
19258;DHT22;9763;48.780;9.212;2022-07-17T21:33:35;26.90;27.00
19258;DHT22;9763;48.780;9.212;2022-07-17T21:37:01;26.80;27.50
19258;DHT22;9763;48.780;9.212;2022-07-17T21:40:25;26.80;27.00
19258;DHT22;9763;48.780;9.212;2022-07-17T21:43:49;26.80;27.00
19258;DHT22;9763;48.780;9.212;2022-07-17T21:47:12;26.70;27.10
19258;DHT22;9763;48.780;9.212;2022-07-17T21:50:36;26.70;27.10
19258;DHT22;9763;48.780;9.212;2022-07-17T21:54:01;26.70;27.10
19258;DHT22;9763;48.780;9.212;2022-07-17T21:57:25;26.50;27.20
19258;DHT22;9763;48.780;9.212;2022-07-17T22:00:50;26.50;27.30
19258;DHT22;9763;48.780;9.212;2022-07-17T22:04:14;26.40;27.40
19258;DHT22;9763;48.780;9.212;2022-07-17T22:07:39;26.40;27.40
19258;DHT22;9763;48.780;9.212;2022-07-17T22:11:05;26.30;27.50